sensor_id;sensor_type;location;lat;lon;timestamp;temperature;humidity
4596;DHT22;2310;49.978;8.742;2023-05-07T00:00:22;18.20;99.90
4596;DHT22;2310;49.978;8.742;2023-05-07T00:04:24;18.30;99.90
4596;DHT22;2310;49.978;8.742;2023-05-07T00:08:25;18.20;99.90
4596;DHT22;2310;49.978;8.742;2023-05-07T00:12:27;18.00;99.90
4596;DHT22;2310;49.978;8.742;2023-05-07T00:16:29;17.90;99.90
4596;DHT22;2310;49.978;8.742;2023-05-07T00:20:31;18.20;99.90
4596;DHT22;2310;49.978;8.742;2023-05-07T00:24:34;18.20;99.90
4596;DHT22;2310;49.978;8.742;2023-05-07T00:28:36;18.00;99.90
4596;DHT22;2310;49.978;8.742;2023-05-07T00:32:38;18.20;99.90
4596;DHT22;2310;49.978;8.742;2023-05-07T00:36:39;18.20;99.90
4596;DHT22;2310;49.978;8.742;2023-05-07T00:40:42;18.20;99.90
4596;DHT22;2310;49.978;8.742;2023-05-07T00:44:43;18.20;99.90
4596;DHT22;2310;49.978;8.742;2023-05-07T00:48:45;18.30;99.90
4596;DHT22;2310;49.978;8.742;2023-05-07T00:52:46;18.20;99.90
4596;DHT22;2310;49.978;8.742;2023-05-07T00:56:47;18.00;99.90
4596;DHT22;2310;49.978;8.742;2023-05-07T01:00:49;17.90;99.90
4596;DHT22;2310;49.978;8.742;2023-05-07T01:04:50;17.80;99.90
4596;DHT22;2310;49.978;8.742;2023-05-07T01:08:52;17.80;99.90
4596;DHT22;2310;49.978;8.742;2023-05-07T01:12:54;17.70;99.90
4596;DHT22;2310;49.978;8.742;2023-05-07T01:16:55;17.70;99.90
4596;DHT22;2310;49.978;8.742;2023-05-07T01:20:58;17.70;99.90
4596;DHT22;2310;49.978;8.742;2023-05-07T01:24:59;17.80;99.90
4596;DHT22;2310;49.978;8.742;2023-05-07T01:29:02;17.70;99.90
4596;DHT22;2310;49.978;8.742;2023-05-07T01:33:08;17.60;99.90
4596;DHT22;2310;49.978;8.742;2023-05-07T01:37:10;17.50;99.90
4596;DHT22;2310;49.978;8.742;2023-05-07T01:41:12;17.40;99.90
4596;DHT22;2310;49.978;8.742;2023-05-07T01:45:14;17.50;99.90
4596;DHT22;2310;49.978;8.742;2023-05-07T01:49:16;17.50;99.90
4596;DHT22;2310;49.978;8.742;2023-05-07T01:53:17;17.50;99.90
4596;DHT22;2310;49.978;8.742;2023-05-07T01:57:18;17.50;99.90
4596;DHT22;2310;49.978;8.742;2023-05-07T02:01:19;17.30;99.90
4596;DHT22;2310;49.978;8.742;2023-05-07T02:05:21;17.30;99.90
4596;DHT22;2310;49.978;8.742;2023-05-07T02:09:22;17.50;99.90
4596;DHT22;2310;49.978;8.742;2023-05-07T02:13:26;17.60;99.90
4596;DHT22;2310;49.978;8.742;2023-05-07T02:17:27;17.50;99.90
4596;DHT22;2310;49.978;8.742;2023-05-07T02:21:30;17.30;99.90
4596;DHT22;2310;49.978;8.742;2023-05-07T02:25:32;17.20;99.90
4596;DHT22;2310;49.978;8.742;2023-05-07T02:29:33;17.10;99.90
4596;DHT22;2310;49.978;8.742;2023-05-07T02:33:34;17.10;99.90
4596;DHT22;2310;49.978;8.742;2023-05-07T02:37:36;17.00;99.90
4596;DHT22;2310;49.978;8.742;2023-05-07T02:41:37;17.00;99.90
4596;DHT22;2310;49.978;8.742;2023-05-07T02:45:38;17.10;99.90
4596;DHT22;2310;49.978;8.742;2023-05-07T02:49:39;17.10;99.90
4596;DHT22;2310;49.978;8.742;2023-05-07T02:53:40;17.10;99.90
4596;DHT22;2310;49.978;8.742;2023-05-07T02:57:42;17.00;99.90
4596;DHT22;2310;49.978;8.742;2023-05-07T03:01:43;17.00;99.90
4596;DHT22;2310;49.978;8.742;2023-05-07T03:05:46;16.80;99.90
4596;DHT22;2310;49.978;8.742;2023-05-07T03:09:47;16.60;99.90
4596;DHT22;2310;49.978;8.742;2023-05-07T03:13:48;16.60;99.90
4596;DHT22;2310;49.978;8.742;2023-05-07T03:17:50;16.50;99.90
4596;DHT22;2310;49.978;8.742;2023-05-07T03:21:51;16.50;99.90
4596;DHT22;2310;49.978;8.742;2023-05-07T03:25:52;16.40;99.90
4596;DHT22;2310;49.978;8.742;2023-05-07T03:29:53;16.40;99.90
4596;DHT22;2310;49.978;8.742;2023-05-07T03:33:57;16.40;99.90
4596;DHT22;2310;49.978;8.742;2023-05-07T03:37:58;16.30;99.90
4596;DHT22;2310;49.978;8.742;2023-05-07T03:41:59;16.40;99.90
4596;DHT22;2310;49.978;8.742;2023-05-07T03:46:01;16.40;99.90
4596;DHT22;2310;49.978;8.742;2023-05-07T03:50:03;16.40;99.90
4596;DHT22;2310;49.978;8.742;2023-05-07T03:54:04;16.50;99.90
4596;DHT22;2310;49.978;8.742;2023-05-07T03:58:05;16.60;99.90
4596;DHT22;2310;49.978;8.742;2023-05-07T04:02:06;16.50;99.90
4596;DHT22;2310;49.978;8.742;2023-05-07T04:06:08;16.50;99.90
4596;DHT22;2310;49.978;8.742;2023-05-07T04:10:09;16.40;99.90
4596;DHT22;2310;49.978;8.742;2023-05-07T04:14:11;16.40;99.90
4596;DHT22;2310;49.978;8.742;2023-05-07T04:18:12;16.10;99.90
4596;DHT22;2310;49.978;8.742;2023-05-07T04:22:13;16.00;99.90
4596;DHT22;2310;49.978;8.742;2023-05-07T04:26:15;16.00;99.90
4596;DHT22;2310;49.978;8.742;2023-05-07T04:30:16;16.10;99.90
4596;DHT22;2310;49.978;8.742;2023-05-07T04:34:17;16.20;99.90
4596;DHT22;2310;49.978;8.742;2023-05-07T04:38:19;16.30;99.90
4596;DHT22;2310;49.978;8.742;2023-05-07T04:42:20;16.40;99.90
4596;DHT22;2310;49.978;8.742;2023-05-07T04:46:21;16.60;99.90
4596;DHT22;2310;49.978;8.742;2023-05-07T04:51:08;16.50;99.90
4596;DHT22;2310;49.978;8.742;2023-05-07T04:55:09;16.70;99.90
4596;DHT22;2310;49.978;8.742;2023-05-07T04:59:11;16.80;99.90
4596;DHT22;2310;49.978;8.742;2023-05-07T05:03:12;16.70;99.90
4596;DHT22;2310;49.978;8.742;2023-05-07T05:07:13;16.60;99.90
4596;DHT22;2310;49.978;8.742;2023-05-07T05:11:14;16.50;99.90
4596;DHT22;2310;49.978;8.742;2023-05-07T05:15:16;16.60;99.90
4596;DHT22;2310;49.978;8.742;2023-05-07T05:19:17;16.50;99.90
4596;DHT22;2310;49.978;8.742;2023-05-07T05:23:19;16.50;99.90
4596;DHT22;2310;49.978;8.742;2023-05-07T05:27:21;16.60;99.90
4596;DHT22;2310;49.978;8.742;2023-05-07T05:31:22;16.70;99.90
4596;DHT22;2310;49.978;8.742;2023-05-07T05:35:23;16.70;99.90
4596;DHT22;2310;49.978;8.742;2023-05-07T05:39:24;16.80;99.90
4596;DHT22;2310;49.978;8.742;2023-05-07T05:43:25;16.70;99.90
4596;DHT22;2310;49.978;8.742;2023-05-07T05:47:27;16.80;99.90
4596;DHT22;2310;49.978;8.742;2023-05-07T05:51:28;16.80;99.90
4596;DHT22;2310;49.978;8.742;2023-05-07T05:55:30;16.70;99.90
4596;DHT22;2310;49.978;8.742;2023-05-07T05:59:33;16.60;99.90
4596;DHT22;2310;49.978;8.742;2023-05-07T06:03:34;16.80;99.90
4596;DHT22;2310;49.978;8.742;2023-05-07T06:07:35;17.10;99.90
4596;DHT22;2310;49.978;8.742;2023-05-07T06:11:36;17.20;99.90
4596;DHT22;2310;49.978;8.742;2023-05-07T06:15:38;17.20;99.90
4596;DHT22;2310;49.978;8.742;2023-05-07T06:19:39;17.20;99.90
4596;DHT22;2310;49.978;8.742;2023-05-07T06:23:40;17.20;99.90
4596;DHT22;2310;49.978;8.742;2023-05-07T06:27:42;17.30;99.90
4596;DHT22;2310;49.978;8.742;2023-05-07T06:31:43;17.20;99.90
4596;DHT22;2310;49.978;8.742;2023-05-07T06:35:44;17.40;99.90
4596;DHT22;2310;49.978;8.742;2023-05-07T06:39:45;17.60;99.90
4596;DHT22;2310;49.978;8.742;2023-05-07T06:43:47;17.80;99.90
4596;DHT22;2310;49.978;8.742;2023-05-07T06:47:48;17.70;99.90
4596;DHT22;2310;49.978;8.742;2023-05-07T06:51:49;17.80;99.90
4596;DHT22;2310;49.978;8.742;2023-05-07T06:55:50;17.90;99.90
4596;DHT22;2310;49.978;8.742;2023-05-07T06:59:53;17.90;99.90
4596;DHT22;2310;49.978;8.742;2023-05-07T07:03:54;17.80;99.90
4596;DHT22;2310;49.978;8.742;2023-05-07T07:07:55;17.80;99.90
4596;DHT22;2310;49.978;8.742;2023-05-07T07:11:56;18.10;99.90
4596;DHT22;2310;49.978;8.742;2023-05-07T07:15:58;18.30;99.90
4596;DHT22;2310;49.978;8.742;2023-05-07T07:19:59;18.50;99.90
4596;DHT22;2310;49.978;8.742;2023-05-07T07:24:00;18.80;99.90
4596;DHT22;2310;49.978;8.742;2023-05-07T07:28:01;18.70;99.90
4596;DHT22;2310;49.978;8.742;2023-05-07T07:32:03;18.70;99.90
4596;DHT22;2310;49.978;8.742;2023-05-07T07:36:05;19.00;99.90
4596;DHT22;2310;49.978;8.742;2023-05-07T07:40:08;19.00;99.90
4596;DHT22;2310;49.978;8.742;2023-05-07T07:44:09;18.90;99.90
4596;DHT22;2310;49.978;8.742;2023-05-07T07:48:14;18.80;99.90
4596;DHT22;2310;49.978;8.742;2023-05-07T07:52:15;19.10;99.90
4596;DHT22;2310;49.978;8.742;2023-05-07T07:56:17;19.10;99.90
4596;DHT22;2310;49.978;8.742;2023-05-07T08:00:18;19.10;99.90
4596;DHT22;2310;49.978;8.742;2023-05-07T08:04:19;19.10;99.90
4596;DHT22;2310;49.978;8.742;2023-05-07T08:08:21;19.10;99.90
4596;DHT22;2310;49.978;8.742;2023-05-07T08:12:22;19.00;99.90
4596;DHT22;2310;49.978;8.742;2023-05-07T08:16:23;19.20;99.90
4596;DHT22;2310;49.978;8.742;2023-05-07T08:20:25;19.40;99.90
4596;DHT22;2310;49.978;8.742;2023-05-07T08:24:26;19.50;99.90
4596;DHT22;2310;49.978;8.742;2023-05-07T08:28:27;19.40;99.90
4596;DHT22;2310;49.978;8.742;2023-05-07T08:32:28;19.60;99.90
4596;DHT22;2310;49.978;8.742;2023-05-07T08:36:29;19.90;99.90
4596;DHT22;2310;49.978;8.742;2023-05-07T08:40:36;19.80;99.90
4596;DHT22;2310;49.978;8.742;2023-05-07T08:44:38;19.60;99.90
4596;DHT22;2310;49.978;8.742;2023-05-07T08:48:39;19.60;99.90
4596;DHT22;2310;49.978;8.742;2023-05-07T08:52:41;19.70;99.90
4596;DHT22;2310;49.978;8.742;2023-05-07T08:56:42;19.40;99.90
4596;DHT22;2310;49.978;8.742;2023-05-07T09:00:43;19.70;99.90
4596;DHT22;2310;49.978;8.742;2023-05-07T09:04:44;19.80;99.90
4596;DHT22;2310;49.978;8.742;2023-05-07T09:08:54;19.60;99.90
4596;DHT22;2310;49.978;8.742;2023-05-07T09:12:55;19.60;99.90
4596;DHT22;2310;49.978;8.742;2023-05-07T09:16:56;19.90;99.90
4596;DHT22;2310;49.978;8.742;2023-05-07T09:20:57;20.10;99.90
4596;DHT22;2310;49.978;8.742;2023-05-07T09:24:59;20.50;99.90
4596;DHT22;2310;49.978;8.742;2023-05-07T09:29:00;20.80;99.90
4596;DHT22;2310;49.978;8.742;2023-05-07T09:33:03;21.10;99.90
4596;DHT22;2310;49.978;8.742;2023-05-07T09:37:06;21.50;99.90
4596;DHT22;2310;49.978;8.742;2023-05-07T09:41:10;21.80;99.90
4596;DHT22;2310;49.978;8.742;2023-05-07T09:45:11;21.90;99.90
4596;DHT22;2310;49.978;8.742;2023-05-07T09:49:20;22.10;99.90
4596;DHT22;2310;49.978;8.742;2023-05-07T09:53:22;22.10;99.90
4596;DHT22;2310;49.978;8.742;2023-05-07T09:57:25;21.80;99.90
4596;DHT22;2310;49.978;8.742;2023-05-07T10:01:29;22.00;99.90
4596;DHT22;2310;49.978;8.742;2023-05-07T10:05:32;22.10;99.90
4596;DHT22;2310;49.978;8.742;2023-05-07T10:09:34;22.10;99.90
4596;DHT22;2310;49.978;8.742;2023-05-07T10:13:38;22.10;99.90
4596;DHT22;2310;49.978;8.742;2023-05-07T10:17:41;22.40;99.90
4596;DHT22;2310;49.978;8.742;2023-05-07T10:21:44;22.80;99.90
4596;DHT22;2310;49.978;8.742;2023-05-07T10:25:47;23.00;99.90
4596;DHT22;2310;49.978;8.742;2023-05-07T10:30:00;23.40;99.90
4596;DHT22;2310;49.978;8.742;2023-05-07T10:34:01;23.40;99.90
4596;DHT22;2310;49.978;8.742;2023-05-07T10:38:04;23.70;99.90
4596;DHT22;2310;49.978;8.742;2023-05-07T10:42:13;23.70;99.90
4596;DHT22;2310;49.978;8.742;2023-05-07T10:50:21;23.70;99.70
4596;DHT22;2310;49.978;8.742;2023-05-07T10:54:23;23.70;99.90
4596;DHT22;2310;49.978;8.742;2023-05-07T10:58:29;23.80;99.90
4596;DHT22;2310;49.978;8.742;2023-05-07T11:11:15;25.30;90.60
4596;DHT22;2310;49.978;8.742;2023-05-07T11:15:40;24.80;90.70
4596;DHT22;2310;49.978;8.742;2023-05-07T11:19:54;24.80;88.00
4596;DHT22;2310;49.978;8.742;2023-05-07T11:23:56;24.90;90.20
4596;DHT22;2310;49.978;8.742;2023-05-07T11:28:06;25.10;84.20
4596;DHT22;2310;49.978;8.742;2023-05-07T11:32:08;25.60;79.60
4596;DHT22;2310;49.978;8.742;2023-05-07T11:36:10;26.60;80.30
4596;DHT22;2310;49.978;8.742;2023-05-07T11:40:12;26.50;69.10
4596;DHT22;2310;49.978;8.742;2023-05-07T11:44:14;26.40;68.30
4596;DHT22;2310;49.978;8.742;2023-05-07T11:48:16;26.50;67.30
4596;DHT22;2310;49.978;8.742;2023-05-07T11:52:20;25.80;68.40
4596;DHT22;2310;49.978;8.742;2023-05-07T11:56:22;25.50;70.40
4596;DHT22;2310;49.978;8.742;2023-05-07T12:00:23;26.20;74.30
4596;DHT22;2310;49.978;8.742;2023-05-07T12:04:24;26.10;67.80
4596;DHT22;2310;49.978;8.742;2023-05-07T12:08:26;25.60;72.40
4596;DHT22;2310;49.978;8.742;2023-05-07T12:12:27;25.50;73.50
4596;DHT22;2310;49.978;8.742;2023-05-07T12:16:29;25.90;68.50
4596;DHT22;2310;49.978;8.742;2023-05-07T12:20:30;25.40;72.80
4596;DHT22;2310;49.978;8.742;2023-05-07T12:24:48;25.60;71.80
4596;DHT22;2310;49.978;8.742;2023-05-07T12:28:50;25.60;72.80
4596;DHT22;2310;49.978;8.742;2023-05-07T12:32:55;25.80;67.50
4596;DHT22;2310;49.978;8.742;2023-05-07T12:36:57;25.60;70.30
4596;DHT22;2310;49.978;8.742;2023-05-07T12:40:58;25.80;70.30
4596;DHT22;2310;49.978;8.742;2023-05-07T12:44:59;26.10;74.40
4596;DHT22;2310;49.978;8.742;2023-05-07T12:49:01;26.40;67.70
4596;DHT22;2310;49.978;8.742;2023-05-07T12:53:06;26.70;63.00
4596;DHT22;2310;49.978;8.742;2023-05-07T12:57:09;26.90;65.00
4596;DHT22;2310;49.978;8.742;2023-05-07T13:01:11;26.60;66.20
4596;DHT22;2310;49.978;8.742;2023-05-07T13:05:14;27.00;66.30
4596;DHT22;2310;49.978;8.742;2023-05-07T13:09:15;26.30;66.90
4596;DHT22;2310;49.978;8.742;2023-05-07T13:13:16;26.30;67.20
4596;DHT22;2310;49.978;8.742;2023-05-07T13:17:18;26.40;64.90
4596;DHT22;2310;49.978;8.742;2023-05-07T13:21:19;26.10;62.50
4596;DHT22;2310;49.978;8.742;2023-05-07T13:25:21;25.70;63.70
4596;DHT22;2310;49.978;8.742;2023-05-07T13:29:22;26.00;65.40
4596;DHT22;2310;49.978;8.742;2023-05-07T13:33:28;26.60;65.00
4596;DHT22;2310;49.978;8.742;2023-05-07T13:37:29;26.60;62.10
4596;DHT22;2310;49.978;8.742;2023-05-07T13:41:30;26.70;58.90
4596;DHT22;2310;49.978;8.742;2023-05-07T13:45:32;27.20;60.80
4596;DHT22;2310;49.978;8.742;2023-05-07T13:49:33;27.00;61.60
4596;DHT22;2310;49.978;8.742;2023-05-07T13:53:34;27.20;60.20
4596;DHT22;2310;49.978;8.742;2023-05-07T13:57:36;27.40;58.60
4596;DHT22;2310;49.978;8.742;2023-05-07T14:01:37;28.00;58.50
4596;DHT22;2310;49.978;8.742;2023-05-07T14:05:39;28.10;54.80
4596;DHT22;2310;49.978;8.742;2023-05-07T14:09:40;27.90;55.00
4596;DHT22;2310;49.978;8.742;2023-05-07T14:13:41;27.70;56.60
4596;DHT22;2310;49.978;8.742;2023-05-07T14:17:43;27.60;58.60
4596;DHT22;2310;49.978;8.742;2023-05-07T14:21:44;27.40;55.50
4596;DHT22;2310;49.978;8.742;2023-05-07T14:25:46;26.80;55.60
4596;DHT22;2310;49.978;8.742;2023-05-07T14:29:48;26.40;55.90
4596;DHT22;2310;49.978;8.742;2023-05-07T14:33:51;26.40;56.10
4596;DHT22;2310;49.978;8.742;2023-05-07T14:37:52;26.50;56.80
4596;DHT22;2310;49.978;8.742;2023-05-07T14:41:53;26.40;57.40
4596;DHT22;2310;49.978;8.742;2023-05-07T14:45:56;25.80;56.70
4596;DHT22;2310;49.978;8.742;2023-05-07T14:49:58;25.90;58.20
4596;DHT22;2310;49.978;8.742;2023-05-07T14:54:00;25.80;59.20
4596;DHT22;2310;49.978;8.742;2023-05-07T14:58:02;25.60;59.00
4596;DHT22;2310;49.978;8.742;2023-05-07T15:02:03;25.70;59.50
4596;DHT22;2310;49.978;8.742;2023-05-07T15:06:07;25.50;58.80
4596;DHT22;2310;49.978;8.742;2023-05-07T15:10:09;25.40;58.40
4596;DHT22;2310;49.978;8.742;2023-05-07T15:14:10;25.50;58.90
4596;DHT22;2310;49.978;8.742;2023-05-07T15:18:11;25.30;58.70
4596;DHT22;2310;49.978;8.742;2023-05-07T15:22:13;25.40;59.60
4596;DHT22;2310;49.978;8.742;2023-05-07T15:26:14;25.20;58.10
4596;DHT22;2310;49.978;8.742;2023-05-07T15:30:15;25.10;58.80
4596;DHT22;2310;49.978;8.742;2023-05-07T15:34:17;25.10;58.80
4596;DHT22;2310;49.978;8.742;2023-05-07T15:38:19;25.20;60.80
4596;DHT22;2310;49.978;8.742;2023-05-07T15:42:20;25.10;60.30
4596;DHT22;2310;49.978;8.742;2023-05-07T15:46:23;25.00;62.70
4596;DHT22;2310;49.978;8.742;2023-05-07T15:50:25;24.90;63.20
4596;DHT22;2310;49.978;8.742;2023-05-07T15:54:29;24.80;66.10
4596;DHT22;2310;49.978;8.742;2023-05-07T15:58:31;24.70;70.00
4596;DHT22;2310;49.978;8.742;2023-05-07T16:02:32;24.60;71.60
4596;DHT22;2310;49.978;8.742;2023-05-07T16:06:33;24.90;74.40
4596;DHT22;2310;49.978;8.742;2023-05-07T16:10:35;24.50;73.20
4596;DHT22;2310;49.978;8.742;2023-05-07T16:14:37;24.60;74.80
4596;DHT22;2310;49.978;8.742;2023-05-07T16:18:38;24.60;92.40
4596;DHT22;2310;49.978;8.742;2023-05-07T16:22:39;24.60;99.90
4596;DHT22;2310;49.978;8.742;2023-05-07T16:26:40;24.60;99.90
4596;DHT22;2310;49.978;8.742;2023-05-07T16:30:42;24.40;99.90
4596;DHT22;2310;49.978;8.742;2023-05-07T16:34:43;24.60;99.90
4596;DHT22;2310;49.978;8.742;2023-05-07T16:38:47;24.70;99.90
4596;DHT22;2310;49.978;8.742;2023-05-07T16:42:49;24.50;99.90
4596;DHT22;2310;49.978;8.742;2023-05-07T16:46:50;24.20;99.90
4596;DHT22;2310;49.978;8.742;2023-05-07T16:50:53;22.60;99.90
4596;DHT22;2310;49.978;8.742;2023-05-07T16:54:54;22.40;99.90
4596;DHT22;2310;49.978;8.742;2023-05-07T16:59:02;21.70;99.90
4596;DHT22;2310;49.978;8.742;2023-05-07T17:03:09;20.80;99.90
4596;DHT22;2310;49.978;8.742;2023-05-07T17:07:11;20.50;99.90
4596;DHT22;2310;49.978;8.742;2023-05-07T17:11:13;20.20;99.90
4596;DHT22;2310;49.978;8.742;2023-05-07T17:15:14;20.10;99.90
4596;DHT22;2310;49.978;8.742;2023-05-07T17:19:16;20.40;99.90
4596;DHT22;2310;49.978;8.742;2023-05-07T17:23:17;20.30;99.90
4596;DHT22;2310;49.978;8.742;2023-05-07T17:27:18;20.70;99.90
4596;DHT22;2310;49.978;8.742;2023-05-07T17:31:20;20.70;99.90
4596;DHT22;2310;49.978;8.742;2023-05-07T17:35:22;20.70;99.90
4596;DHT22;2310;49.978;8.742;2023-05-07T17:39:23;20.70;99.90
4596;DHT22;2310;49.978;8.742;2023-05-07T17:43:24;20.50;99.90
4596;DHT22;2310;49.978;8.742;2023-05-07T17:47:25;20.30;99.90
4596;DHT22;2310;49.978;8.742;2023-05-07T17:51:26;20.00;99.90
4596;DHT22;2310;49.978;8.742;2023-05-07T17:55:31;19.90;99.90
4596;DHT22;2310;49.978;8.742;2023-05-07T17:59:37;20.10;99.90
4596;DHT22;2310;49.978;8.742;2023-05-07T18:03:39;20.00;99.90
4596;DHT22;2310;49.978;8.742;2023-05-07T18:07:40;19.90;99.90
4596;DHT22;2310;49.978;8.742;2023-05-07T18:11:42;19.90;99.90
4596;DHT22;2310;49.978;8.742;2023-05-07T18:15:46;19.80;99.90
4596;DHT22;2310;49.978;8.742;2023-05-07T18:19:47;19.80;99.90
4596;DHT22;2310;49.978;8.742;2023-05-07T18:23:49;19.80;99.90
4596;DHT22;2310;49.978;8.742;2023-05-07T18:27:51;19.70;99.90
4596;DHT22;2310;49.978;8.742;2023-05-07T18:31:52;19.70;99.90
4596;DHT22;2310;49.978;8.742;2023-05-07T18:35:53;19.70;99.90
4596;DHT22;2310;49.978;8.742;2023-05-07T18:39:55;19.60;99.90
4596;DHT22;2310;49.978;8.742;2023-05-07T18:43:56;19.60;99.90
4596;DHT22;2310;49.978;8.742;2023-05-07T18:47:57;19.40;99.90
4596;DHT22;2310;49.978;8.742;2023-05-07T18:51:59;19.40;99.90
4596;DHT22;2310;49.978;8.742;2023-05-07T18:56:00;19.40;99.90
4596;DHT22;2310;49.978;8.742;2023-05-07T19:00:02;19.30;99.90
4596;DHT22;2310;49.978;8.742;2023-05-07T19:04:06;19.40;99.90
4596;DHT22;2310;49.978;8.742;2023-05-07T19:08:07;19.30;99.90
4596;DHT22;2310;49.978;8.742;2023-05-07T19:12:08;19.40;99.90
4596;DHT22;2310;49.978;8.742;2023-05-07T19:16:10;19.40;99.90
4596;DHT22;2310;49.978;8.742;2023-05-07T19:20:13;19.30;99.90
4596;DHT22;2310;49.978;8.742;2023-05-07T19:24:15;19.30;99.90
4596;DHT22;2310;49.978;8.742;2023-05-07T19:28:17;19.20;99.90
4596;DHT22;2310;49.978;8.742;2023-05-07T19:32:18;19.20;99.90
4596;DHT22;2310;49.978;8.742;2023-05-07T19:36:21;19.00;99.90
4596;DHT22;2310;49.978;8.742;2023-05-07T19:40:22;18.90;99.90
4596;DHT22;2310;49.978;8.742;2023-05-07T19:44:23;18.90;99.90
4596;DHT22;2310;49.978;8.742;2023-05-07T19:48:25;18.90;99.90
4596;DHT22;2310;49.978;8.742;2023-05-07T19:52:26;18.80;99.90
4596;DHT22;2310;49.978;8.742;2023-05-07T19:56:27;18.80;99.90
4596;DHT22;2310;49.978;8.742;2023-05-07T20:00:30;19.00;99.90
4596;DHT22;2310;49.978;8.742;2023-05-07T20:04:33;19.10;99.90
4596;DHT22;2310;49.978;8.742;2023-05-07T20:08:36;19.00;99.90
4596;DHT22;2310;49.978;8.742;2023-05-07T20:12:38;18.80;99.90
4596;DHT22;2310;49.978;8.742;2023-05-07T20:16:39;18.80;99.90
4596;DHT22;2310;49.978;8.742;2023-05-07T20:20:41;18.60;99.90
4596;DHT22;2310;49.978;8.742;2023-05-07T20:24:44;18.50;99.90
4596;DHT22;2310;49.978;8.742;2023-05-07T20:28:46;18.40;99.90
4596;DHT22;2310;49.978;8.742;2023-05-07T20:32:47;18.10;99.90
4596;DHT22;2310;49.978;8.742;2023-05-07T20:36:48;18.00;99.90
4596;DHT22;2310;49.978;8.742;2023-05-07T20:40:49;18.10;99.90
4596;DHT22;2310;49.978;8.742;2023-05-07T20:44:51;18.20;99.90
4596;DHT22;2310;49.978;8.742;2023-05-07T20:48:52;18.20;99.90
4596;DHT22;2310;49.978;8.742;2023-05-07T20:52:53;18.30;99.90
4596;DHT22;2310;49.978;8.742;2023-05-07T20:56:55;18.30;99.90
4596;DHT22;2310;49.978;8.742;2023-05-07T21:00:57;18.40;99.90
4596;DHT22;2310;49.978;8.742;2023-05-07T21:04:59;18.40;99.90
4596;DHT22;2310;49.978;8.742;2023-05-07T21:09:00;18.40;99.90
4596;DHT22;2310;49.978;8.742;2023-05-07T21:13:01;18.40;99.90
4596;DHT22;2310;49.978;8.742;2023-05-07T21:17:03;18.30;99.90
4596;DHT22;2310;49.978;8.742;2023-05-07T21:21:08;18.20;99.90
4596;DHT22;2310;49.978;8.742;2023-05-07T21:25:10;18.10;99.90
4596;DHT22;2310;49.978;8.742;2023-05-07T21:29:13;18.00;99.90
4596;DHT22;2310;49.978;8.742;2023-05-07T21:33:14;18.10;99.90
4596;DHT22;2310;49.978;8.742;2023-05-07T21:37:15;18.10;99.90
4596;DHT22;2310;49.978;8.742;2023-05-07T21:41:17;18.20;99.90
4596;DHT22;2310;49.978;8.742;2023-05-07T21:45:20;18.30;99.90
4596;DHT22;2310;49.978;8.742;2023-05-07T21:49:22;18.40;99.90
4596;DHT22;2310;49.978;8.742;2023-05-07T21:53:23;18.40;99.90
4596;DHT22;2310;49.978;8.742;2023-05-07T21:57:24;18.40;99.90
4596;DHT22;2310;49.978;8.742;2023-05-07T22:01:26;18.40;99.90
4596;DHT22;2310;49.978;8.742;2023-05-07T22:05:27;18.50;99.90
4596;DHT22;2310;49.978;8.742;2023-05-07T22:09:28;18.50;99.90
4596;DHT22;2310;49.978;8.742;2023-05-07T22:13:29;18.50;99.90
4596;DHT22;2310;49.978;8.742;2023-05-07T22:17:32;18.50;99.90
4596;DHT22;2310;49.978;8.742;2023-05-07T22:21:34;18.60;99.90
4596;DHT22;2310;49.978;8.742;2023-05-07T22:25:35;18.50;99.90
4596;DHT22;2310;49.978;8.742;2023-05-07T22:29:38;18.40;99.90
4596;DHT22;2310;49.978;8.742;2023-05-07T22:33:39;18.30;99.90
4596;DHT22;2310;49.978;8.742;2023-05-07T22:37:42;18.30;99.90
4596;DHT22;2310;49.978;8.742;2023-05-07T22:41:45;18.00;99.90
4596;DHT22;2310;49.978;8.742;2023-05-07T22:45:48;17.80;99.90
4596;DHT22;2310;49.978;8.742;2023-05-07T22:49:50;17.70;99.90
4596;DHT22;2310;49.978;8.742;2023-05-07T22:53:54;17.50;99.90
4596;DHT22;2310;49.978;8.742;2023-05-07T22:57:55;17.50;99.90
4596;DHT22;2310;49.978;8.742;2023-05-07T23:01:57;17.50;99.90
4596;DHT22;2310;49.978;8.742;2023-05-07T23:05:59;17.40;99.90
4596;DHT22;2310;49.978;8.742;2023-05-07T23:10:02;17.40;99.90
4596;DHT22;2310;49.978;8.742;2023-05-07T23:14:04;17.30;99.90
4596;DHT22;2310;49.978;8.742;2023-05-07T23:18:06;17.20;99.90
4596;DHT22;2310;49.978;8.742;2023-05-07T23:22:08;17.00;99.90
4596;DHT22;2310;49.978;8.742;2023-05-07T23:26:13;16.80;99.90
4596;DHT22;2310;49.978;8.742;2023-05-07T23:30:18;16.70;99.90
4596;DHT22;2310;49.978;8.742;2023-05-07T23:34:20;16.80;99.90
4596;DHT22;2310;49.978;8.742;2023-05-07T23:38:24;16.70;99.90
4596;DHT22;2310;49.978;8.742;2023-05-07T23:42:26;16.60;99.90
4596;DHT22;2310;49.978;8.742;2023-05-07T23:46:28;16.60;99.90
4596;DHT22;2310;49.978;8.742;2023-05-07T23:50:30;16.40;99.90
4596;DHT22;2310;49.978;8.742;2023-05-07T23:54:32;16.50;99.90
4596;DHT22;2310;49.978;8.742;2023-05-07T23:58:34;16.70;99.90
